createdAt,value
2023-05-04T00:00:32.218Z,102347.75
2023-05-04T00:02:59.361Z,102333.28
2023-05-04T00:05:26.697Z,102340.47
2023-05-04T00:07:53.785Z,102341.03
2023-05-04T00:10:20.852Z,102337.47
2023-05-04T00:12:48.057Z,102327.91
2023-05-04T00:15:15.477Z,102335.97
2023-05-04T00:17:42.663Z,102343.88
2023-05-04T00:20:10.213Z,102337.00
2023-05-04T00:22:37.204Z,102330.09
2023-05-04T00:25:04.755Z,102320.44
2023-05-04T00:27:31.962Z,102314.78
2023-05-04T00:29:58.946Z,102312.44
2023-05-04T00:32:26.269Z,102324.25
2023-05-04T00:34:53.758Z,102303.28
2023-05-04T00:37:20.842Z,102306.78
2023-05-04T00:39:47.866Z,102298.69
2023-05-04T00:42:14.901Z,102303.78
2023-05-04T00:44:41.914Z,102295.00
2023-05-04T00:47:09.387Z,102285.88
2023-05-04T00:49:36.572Z,102302.63
2023-05-04T00:52:05.169Z,102297.09
2023-05-04T00:54:33.247Z,102299.00
2023-05-04T00:57:02.071Z,102294.75
2023-05-04T00:59:29.192Z,102289.34
2023-05-04T01:01:56.248Z,102275.19
2023-05-04T01:04:23.745Z,102293.03
2023-05-04T01:07:22.272Z,102285.88
2023-05-04T01:10:25.393Z,102287.50
2023-05-04T01:13:07.581Z,102280.56
2023-05-04T01:15:35.349Z,102283.22
2023-05-04T01:18:02.824Z,102277.84
2023-05-04T01:20:30.459Z,102276.97
2023-05-04T01:22:57.842Z,102289.75
2023-05-04T01:25:33.107Z,102281.88
2023-05-04T01:28:05.099Z,102281.63
2023-05-04T01:30:37.911Z,102284.16
2023-05-04T01:33:06.074Z,102274.63
2023-05-04T01:35:33.497Z,102276.06
2023-05-04T01:38:00.746Z,102283.00
2023-05-04T01:40:27.852Z,102277.72
2023-05-04T01:42:54.900Z,102285.50
2023-05-04T01:45:22.487Z,102275.25
2023-05-04T01:47:49.620Z,102284.53
2023-05-04T01:50:16.920Z,102278.50
2023-05-04T01:52:44.118Z,102279.38
2023-05-04T01:55:11.339Z,102274.09
2023-05-04T01:57:38.432Z,102273.03
2023-05-04T02:00:06.388Z,102235.13
2023-05-04T02:02:33.760Z,102261.69
2023-05-04T02:05:00.907Z,102259.41
2023-05-04T02:07:27.948Z,102261.34
2023-05-04T02:09:55.019Z,102257.97
2023-05-04T02:12:22.290Z,102260.53
2023-05-04T02:14:49.543Z,102251.94
2023-05-04T02:17:16.579Z,102245.00
2023-05-04T02:19:43.608Z,102252.72
2023-05-04T02:22:10.687Z,102244.81
2023-05-04T02:24:40.288Z,102248.94
2023-05-04T02:27:07.314Z,102240.03
2023-05-04T02:29:34.305Z,102239.03
2023-05-04T02:32:01.512Z,102235.50
2023-05-04T02:34:29.437Z,102238.81
2023-05-04T02:36:56.541Z,102231.97
2023-05-04T02:39:23.913Z,102234.19
2023-05-04T02:41:50.971Z,102232.53
2023-05-04T02:44:18.045Z,102230.56
2023-05-04T02:46:45.440Z,102232.28
2023-05-04T02:49:12.425Z,102226.88
2023-05-04T02:51:39.461Z,102228.41
2023-05-04T02:54:08.246Z,102229.75
2023-05-04T02:56:35.320Z,102224.72
2023-05-04T02:59:02.431Z,102217.78
2023-05-04T03:01:29.509Z,102218.50
2023-05-04T03:03:56.652Z,102216.75
2023-05-04T03:06:23.893Z,102214.16
2023-05-04T03:08:50.992Z,102226.25
2023-05-04T03:11:17.990Z,102218.59
2023-05-04T03:13:44.973Z,102221.78
2023-05-04T03:16:12.040Z,102213.84
2023-05-04T03:21:23.986Z,102211.38
2023-05-04T03:23:51.078Z,102197.47
2023-05-04T03:26:18.103Z,102205.91
2023-05-04T03:28:45.245Z,102215.41
2023-05-04T03:31:12.403Z,102197.19
2023-05-04T03:33:39.446Z,102203.41
2023-05-04T03:36:06.830Z,102200.94
2023-05-04T03:38:33.904Z,102201.75
2023-05-04T03:41:00.919Z,102196.16
2023-05-04T03:43:27.912Z,102192.72
2023-05-04T03:45:55.046Z,102198.66
2023-05-04T03:48:22.150Z,102186.50
2023-05-04T03:50:49.391Z,102190.78
2023-05-04T03:53:16.412Z,102191.66
2023-05-04T03:55:43.479Z,102180.56
2023-05-04T03:58:11.211Z,102183.13
2023-05-04T04:00:38.297Z,102176.75
2023-05-04T04:03:05.513Z,102189.63
2023-05-04T04:05:32.692Z,102187.22
2023-05-04T04:07:59.766Z,102184.56
2023-05-04T04:10:26.884Z,102181.09
2023-05-04T04:12:53.975Z,102183.50
2023-05-04T04:15:21.024Z,102189.38
2023-05-04T04:17:48.123Z,102183.44
2023-05-04T04:20:16.166Z,102178.13
2023-05-04T04:22:43.246Z,102178.19
2023-05-04T04:25:10.499Z,102183.50
2023-05-04T04:27:37.763Z,102171.09
2023-05-04T04:30:05.623Z,102180.78
2023-05-04T04:32:34.053Z,102183.59
2023-05-04T04:35:01.974Z,102174.19
2023-05-04T04:37:28.977Z,102175.97
2023-05-04T04:39:56.037Z,102167.91
2023-05-04T04:42:26.268Z,102177.56
2023-05-04T04:44:54.457Z,102176.75
2023-05-04T04:47:21.930Z,102182.09
2023-05-04T04:49:49.331Z,102182.09
2023-05-04T04:52:17.845Z,102169.28
2023-05-04T04:54:45.889Z,102175.41
2023-05-04T04:57:12.931Z,102172.19
2023-05-04T04:59:40.136Z,102179.19
2023-05-04T05:02:07.239Z,102172.38
2023-05-04T05:04:34.414Z,102171.63
2023-05-04T05:07:01.991Z,102170.91
2023-05-04T05:09:29.354Z,102152.63
2023-05-04T05:11:56.548Z,102167.00
2023-05-04T05:14:23.748Z,102165.38
2023-05-04T05:16:51.087Z,102169.22
2023-05-04T05:19:18.296Z,102151.00
2023-05-04T05:21:46.003Z,102148.47
2023-05-04T05:24:13.111Z,102159.91
2023-05-04T05:26:40.197Z,102159.59
2023-05-04T05:29:07.262Z,102153.53
2023-05-04T05:31:34.393Z,102162.56
2023-05-04T05:34:02.085Z,102162.78
2023-05-04T05:36:29.167Z,102162.31
2023-05-04T05:38:56.368Z,102153.22
2023-05-04T05:41:23.864Z,102160.69
2023-05-04T05:43:51.026Z,102148.09
2023-05-04T05:46:18.586Z,102150.66
2023-05-04T05:48:45.970Z,102159.97
2023-05-04T05:51:13.032Z,102161.19
2023-05-04T05:53:40.133Z,102157.34
2023-05-04T05:56:07.343Z,102147.03
2023-05-04T05:58:34.369Z,102151.69
2023-05-04T06:01:01.855Z,102146.69
2023-05-04T06:03:29.080Z,102146.81
2023-05-04T06:05:56.310Z,102140.22
2023-05-04T06:08:23.843Z,102135.47
2023-05-04T06:10:51.527Z,102140.28
2023-05-04T06:13:18.748Z,102137.56
2023-05-04T06:15:55.118Z,102135.69
2023-05-04T06:18:22.736Z,102131.72
2023-05-04T06:20:49.739Z,102132.44
2023-05-04T06:23:16.839Z,102126.34
2023-05-04T06:25:43.888Z,102123.56
2023-05-04T06:28:11.053Z,102130.38
2023-05-04T06:30:38.140Z,102131.59
2023-05-04T06:33:05.927Z,102121.59
2023-05-04T06:35:33.274Z,102123.53
2023-05-04T06:38:02.169Z,102112.19
2023-05-04T06:40:29.898Z,102122.53
2023-05-04T06:42:56.999Z,102127.88
2023-05-04T06:45:24.165Z,102120.97
2023-05-04T06:47:52.708Z,102111.81
2023-05-04T06:50:20.007Z,102119.16
2023-05-04T06:52:47.079Z,102118.94
2023-05-04T06:55:14.120Z,102107.63
2023-05-04T06:57:41.211Z,102106.16
2023-05-04T07:00:08.935Z,102102.03
2023-05-04T07:02:36.081Z,102104.97
2023-05-04T07:05:03.872Z,102099.94
2023-05-04T07:07:31.017Z,102097.94
2023-05-04T07:09:58.316Z,102091.38
2023-05-04T07:12:26.243Z,102089.13
2023-05-04T07:14:53.686Z,102095.63
2023-05-04T07:17:22.238Z,102093.22
2023-05-04T07:19:52.565Z,102096.16
2023-05-04T07:22:20.817Z,102094.09
2023-05-04T07:24:47.910Z,102089.44
2023-05-04T07:27:15.009Z,102089.72
2023-05-04T07:29:42.094Z,102082.50
2023-05-04T07:32:09.161Z,102077.78
2023-05-04T07:34:45.019Z,102077.41
2023-05-04T07:37:13.712Z,102076.84
2023-05-04T07:39:40.978Z,102066.91
2023-05-04T07:42:08.633Z,102054.03
2023-05-04T07:44:35.739Z,102053.16
2023-05-04T07:47:03.219Z,102069.19
2023-05-04T07:49:30.285Z,102063.44
2023-05-04T07:51:57.353Z,102068.09
2023-05-04T07:54:24.379Z,102065.88
2023-05-04T07:56:52.074Z,102058.41
2023-05-04T07:59:19.148Z,102058.53
2023-05-04T08:01:47.168Z,102055.44
2023-05-04T08:04:14.375Z,102057.25
2023-05-04T08:06:41.762Z,102055.72
2023-05-04T08:09:09.362Z,102051.91
2023-05-04T08:11:37.716Z,102044.44
2023-05-04T08:14:04.900Z,102042.34
2023-05-04T08:16:32.395Z,102041.81
2023-05-04T08:19:01.496Z,102024.41
2023-05-04T08:21:28.657Z,102039.41
2023-05-04T08:23:56.196Z,102033.78
2023-05-04T08:26:23.898Z,102039.81
2023-05-04T08:28:50.978Z,102027.00
2023-05-04T08:31:18.650Z,102019.28
2023-05-04T08:33:46.284Z,102013.28
2023-05-04T08:36:13.338Z,102018.63
2023-05-04T08:38:40.455Z,102008.16
2023-05-04T08:41:08.378Z,102005.66
2023-05-04T08:43:36.559Z,102005.66
2023-05-04T08:46:04.862Z,102000.31
2023-05-04T08:48:35.606Z,102000.41
2023-05-04T08:51:02.936Z,102003.28
2023-05-04T08:53:31.494Z,102002.56
2023-05-04T08:56:04.689Z,102002.06
2023-05-04T08:58:37.888Z,101995.34
2023-05-04T09:01:07.176Z,101997.28
2023-05-04T09:03:34.831Z,101988.72
2023-05-04T09:06:02.815Z,101981.03
2023-05-04T09:08:29.959Z,101980.38
2023-05-04T09:10:56.978Z,101971.13
2023-05-04T09:13:24.041Z,101983.41
2023-05-04T09:15:58.836Z,101970.59
2023-05-04T09:18:43.013Z,101974.31
2023-05-04T09:21:11.261Z,101971.75
2023-05-04T09:23:51.318Z,101963.09
2023-05-04T09:26:31.758Z,101954.38
2023-05-04T09:29:15.431Z,101955.44
2023-05-04T09:31:53.086Z,101955.56
2023-05-04T09:34:23.326Z,101951.13
2023-05-04T09:37:03.613Z,101951.28
2023-05-04T09:39:30.746Z,101946.16
2023-05-04T09:41:57.900Z,101948.03
2023-05-04T09:44:26.383Z,101948.94
2023-05-04T09:46:57.979Z,101942.88
2023-05-04T09:49:36.986Z,101943.88
2023-05-04T09:52:06.917Z,101943.09
2023-05-04T09:54:35.091Z,101936.16
2023-05-04T09:57:15.836Z,101935.44
2023-05-04T09:59:42.926Z,101937.22
2023-05-04T10:02:21.968Z,101931.16
2023-05-04T10:04:51.847Z,101929.44
2023-05-04T10:07:20.597Z,101921.56
2023-05-04T10:09:48.850Z,101906.72
2023-05-04T10:12:17.732Z,101915.47
2023-05-04T10:14:47.020Z,101893.63
2023-05-04T10:17:35.897Z,101901.50
2023-05-04T10:20:29.988Z,101902.44
2023-05-04T10:23:23.857Z,101893.66
2023-05-04T10:26:05.913Z,101888.41
2023-05-04T10:29:04.949Z,101890.97
2023-05-04T10:31:42.661Z,101873.47
2023-05-04T10:34:10.535Z,101873.50
2023-05-04T10:36:39.206Z,101870.84
2023-05-04T10:39:18.684Z,101871.72
2023-05-04T10:42:05.468Z,101867.28
2023-05-04T10:44:35.302Z,101861.97
2023-05-04T10:47:05.488Z,101854.03
2023-05-04T10:49:36.375Z,101854.00
2023-05-04T10:52:17.946Z,101846.97
2023-05-04T10:54:47.066Z,101842.59
2023-05-04T10:57:17.607Z,101838.22
2023-05-04T10:59:56.967Z,101833.81
2023-05-04T11:02:25.767Z,101824.88
2023-05-04T11:05:07.130Z,101821.38
2023-05-04T11:07:37.473Z,101817.75
2023-05-04T11:10:06.766Z,101806.31
2023-05-04T11:12:34.376Z,101806.22
2023-05-04T11:15:10.864Z,101802.59
2023-05-04T11:17:53.330Z,101792.81
2023-05-04T11:20:25.942Z,101793.66
2023-05-04T11:22:54.671Z,101793.53
2023-05-04T11:25:28.843Z,101784.69
2023-05-04T11:27:56.528Z,101774.09
2023-05-04T11:30:31.533Z,101771.25
2023-05-04T11:33:00.778Z,101761.66
2023-05-04T11:35:28.071Z,101764.09
2023-05-04T11:37:56.374Z,101754.34
2023-05-04T11:40:25.562Z,101753.13
2023-05-04T11:42:56.805Z,101753.69
2023-05-04T11:45:31.037Z,101747.19
2023-05-04T11:47:59.206Z,101742.09
2023-05-04T11:50:28.644Z,101731.28
2023-05-04T11:53:06.857Z,101729.50
2023-05-04T11:55:34.902Z,101727.19
2023-05-04T11:58:10.323Z,101728.56
2023-05-04T12:00:41.726Z,101723.97
2023-05-04T12:03:13.013Z,101723.69
2023-05-04T12:05:51.183Z,101725.25
2023-05-04T12:08:29.716Z,101725.31
2023-05-04T12:11:16.542Z,101723.28
2023-05-04T12:13:45.905Z,101716.81
2023-05-04T12:16:13.276Z,101720.84
2023-05-04T12:18:41.618Z,101718.00
2023-05-04T12:21:19.089Z,101714.09
2023-05-04T12:23:47.135Z,101713.13
2023-05-04T12:26:16.882Z,101709.59
2023-05-04T12:28:47.519Z,101707.72
2023-05-04T12:31:15.119Z,101706.59
2023-05-04T12:33:42.298Z,101705.97
2023-05-04T12:36:10.251Z,101707.47
2023-05-04T12:38:40.361Z,101703.25
2023-05-04T12:41:10.663Z,101688.53
2023-05-04T12:43:38.296Z,101689.91
2023-05-04T12:46:05.534Z,101688.16
2023-05-04T12:48:33.058Z,101682.88
2023-05-04T12:51:01.516Z,101674.41
2023-05-04T12:53:30.133Z,101663.34
2023-05-04T12:55:58.693Z,101667.22
2023-05-04T12:58:26.017Z,101670.13
2023-05-04T13:00:53.720Z,101665.59
2023-05-04T13:03:20.851Z,101657.31
2023-05-04T13:05:49.707Z,101645.97
2023-05-04T13:08:18.195Z,101643.81
2023-05-04T13:10:46.285Z,101636.38
2023-05-04T13:13:16.221Z,101650.94
2023-05-04T13:15:44.226Z,101643.75
2023-05-04T13:18:12.760Z,101644.56
2023-05-04T13:20:40.611Z,101626.72
2023-05-04T13:23:07.837Z,101628.78
2023-05-04T13:25:34.956Z,101625.13
2023-05-04T13:28:02.043Z,101619.31
2023-05-04T13:30:29.822Z,101608.69
2023-05-04T13:32:56.929Z,101609.97
2023-05-04T13:35:24.455Z,101615.00
2023-05-04T13:37:51.925Z,101604.34
2023-05-04T13:40:19.080Z,101607.22
2023-05-04T13:42:46.807Z,101598.66
2023-05-04T13:45:14.568Z,101586.88
2023-05-04T13:47:42.248Z,101600.00
2023-05-04T13:50:09.837Z,101591.22
2023-05-04T13:52:37.359Z,101580.78
2023-05-04T13:55:05.183Z,101570.19
2023-05-04T13:57:32.470Z,101577.03
2023-05-04T14:00:06.997Z,101566.44
2023-05-04T14:02:34.693Z,101559.81
2023-05-04T14:05:03.998Z,101555.38
2023-05-04T14:07:31.320Z,101546.59
2023-05-04T14:09:59.151Z,101546.09
2023-05-04T14:12:26.453Z,101535.06
2023-05-04T14:14:53.554Z,101540.56
2023-05-04T14:17:20.571Z,101539.06
2023-05-04T14:19:47.639Z,101535.19
2023-05-04T14:22:14.736Z,101522.28
2023-05-04T14:24:42.626Z,101518.22
2023-05-04T14:27:09.771Z,101516.16
2023-05-04T14:29:36.982Z,101513.63
2023-05-04T14:32:04.374Z,101497.31
2023-05-04T14:34:32.592Z,101502.91
2023-05-04T14:36:59.702Z,101501.75
2023-05-04T14:39:26.797Z,101505.56
2023-05-04T14:41:54.040Z,101498.53
2023-05-04T14:44:23.166Z,101500.38
2023-05-04T14:46:50.172Z,101499.03
2023-05-04T14:49:28.807Z,101496.50
2023-05-04T14:52:03.758Z,101493.63
2023-05-04T14:54:30.865Z,101496.81
2023-05-04T14:56:58.973Z,101497.56
2023-05-04T14:59:26.191Z,101491.34
2023-05-04T15:01:54.999Z,101492.28
2023-05-04T15:04:23.219Z,101483.03
2023-05-04T15:06:50.435Z,101478.28
2023-05-04T15:09:17.545Z,101478.59
2023-05-04T15:11:44.635Z,101469.94
2023-05-04T15:14:12.106Z,101471.28
2023-05-04T15:16:39.215Z,101471.38
2023-05-04T15:19:07.052Z,101459.53
2023-05-04T15:21:34.588Z,101462.03
2023-05-04T15:24:02.030Z,101461.41
2023-05-04T15:26:30.826Z,101464.63
2023-05-04T15:28:57.929Z,101448.00
2023-05-04T15:31:25.116Z,101455.84
2023-05-04T15:33:52.185Z,101457.72
2023-05-04T15:36:19.237Z,101454.75
2023-05-04T15:38:46.752Z,101455.38
2023-05-04T15:41:14.157Z,101456.75
2023-05-04T15:43:41.298Z,101459.97
2023-05-04T15:46:08.407Z,101462.22
2023-05-04T15:48:35.623Z,101451.66
2023-05-04T15:51:02.675Z,101451.34
2023-05-04T15:53:29.764Z,101457.41
2023-05-04T15:55:56.841Z,101451.16
2023-05-04T15:58:23.921Z,101444.97
2023-05-04T16:00:52.490Z,101443.50
2023-05-04T16:03:19.767Z,101438.72
2023-05-04T16:05:47.212Z,101426.75
2023-05-04T16:08:14.299Z,101435.06
2023-05-04T16:10:41.410Z,101417.69
2023-05-04T16:13:11.336Z,101422.72
2023-05-04T16:15:39.280Z,101423.22
2023-05-04T16:18:06.445Z,101427.91
2023-05-04T16:20:33.535Z,101413.78
2023-05-04T16:23:00.702Z,101412.56
2023-05-04T16:25:27.743Z,101403.44
2023-05-04T16:27:54.856Z,101405.38
2023-05-04T16:30:22.053Z,101393.72
2023-05-04T16:32:49.227Z,101396.22
2023-05-04T16:35:16.566Z,101395.34
2023-05-04T16:37:43.675Z,101393.78
2023-05-04T16:40:15.607Z,101395.59
2023-05-04T16:42:43.714Z,101396.66
2023-05-04T16:45:13.447Z,101401.72
2023-05-04T16:47:41.864Z,101382.78
2023-05-04T16:50:10.606Z,101393.13
2023-05-04T16:52:38.738Z,101385.50
2023-05-04T16:55:09.099Z,101390.53
2023-05-04T16:57:37.876Z,101387.03
2023-05-04T17:00:06.228Z,101384.78
2023-05-04T17:02:33.647Z,101390.19
2023-05-04T17:05:01.100Z,101381.28
2023-05-04T17:07:28.646Z,101378.31
2023-05-04T17:09:55.837Z,101366.06
2023-05-04T17:12:23.312Z,101368.22
2023-05-04T17:14:50.653Z,101362.16
2023-05-04T17:17:17.857Z,101362.13
2023-05-04T17:19:44.882Z,101365.84
2023-05-04T17:22:11.930Z,101367.31
2023-05-04T17:24:38.976Z,101373.66
2023-05-04T17:27:06.062Z,101375.81
2023-05-04T17:29:33.172Z,101376.78
2023-05-04T17:32:00.802Z,101383.97
2023-05-04T17:34:28.031Z,101376.69
2023-05-04T17:36:55.004Z,101383.06
2023-05-04T17:39:22.811Z,101395.72
2023-05-04T17:41:50.879Z,101393.41
2023-05-04T17:44:17.900Z,101392.66
2023-05-04T17:46:45.140Z,101395.47
2023-05-04T17:49:12.233Z,101394.81
2023-05-04T17:51:39.994Z,101398.69
2023-05-04T17:54:07.024Z,101391.81
2023-05-04T17:56:34.116Z,101396.38
2023-05-04T17:59:01.573Z,101397.38
2023-05-04T18:01:28.630Z,101403.69
2023-05-04T18:03:57.094Z,101391.66
2023-05-04T18:06:24.352Z,101396.13
2023-05-04T18:08:51.499Z,101395.47
2023-05-04T18:11:19.164Z,101403.59
2023-05-04T18:13:46.326Z,101400.28
2023-05-04T18:16:13.465Z,101396.94
2023-05-04T18:18:40.697Z,101395.47
2023-05-04T18:21:07.737Z,101403.47
2023-05-04T18:23:34.811Z,101394.97
2023-05-04T18:26:02.250Z,101409.94
2023-05-04T18:28:29.368Z,101416.06
2023-05-04T18:30:56.947Z,101414.47
2023-05-04T18:33:23.988Z,101423.28
2023-05-04T18:35:52.406Z,101422.50
2023-05-04T18:38:19.514Z,101420.03
2023-05-04T18:40:46.556Z,101433.25
2023-05-04T18:43:13.739Z,101427.34
2023-05-04T18:45:40.768Z,101433.53
2023-05-04T18:48:07.962Z,101435.38
2023-05-04T18:50:35.094Z,101428.41
2023-05-04T18:53:02.220Z,101425.81
2023-05-04T18:55:29.235Z,101438.94
2023-05-04T18:57:56.277Z,101427.66
2023-05-04T19:00:23.423Z,101425.97
2023-05-04T19:02:52.144Z,101434.78
2023-05-04T19:05:19.199Z,101428.75
2023-05-04T19:07:46.428Z,101426.19
2023-05-04T19:10:13.628Z,101421.81
2023-05-04T19:12:40.680Z,101428.00
2023-05-04T19:15:08.297Z,101424.59
2023-05-04T19:17:35.422Z,101422.88
2023-05-04T19:20:02.924Z,101421.16
2023-05-04T19:22:30.114Z,101416.88
2023-05-04T19:24:57.172Z,101413.44
2023-05-04T19:27:24.272Z,101413.53
2023-05-04T19:29:51.317Z,101413.53
2023-05-04T19:32:24.427Z,101411.84
2023-05-04T19:34:52.519Z,101419.78
2023-05-04T19:37:19.698Z,101428.53
2023-05-04T19:39:47.124Z,101420.66
2023-05-04T19:42:14.172Z,101419.84
2023-05-04T19:44:41.570Z,101422.50
2023-05-04T19:47:12.637Z,101427.78
2023-05-04T19:49:39.736Z,101421.69
2023-05-04T19:52:07.024Z,101419.94
2023-05-04T19:54:34.679Z,101409.53
2023-05-04T19:57:01.818Z,101420.03
2023-05-04T19:59:28.904Z,101410.47
2023-05-04T20:01:56.021Z,101406.13
2023-05-04T20:04:24.191Z,101402.59
2023-05-04T20:06:51.309Z,101401.78
2023-05-04T20:09:18.354Z,101403.56
2023-05-04T20:11:45.547Z,101404.44
2023-05-04T20:14:12.679Z,101412.34
2023-05-04T20:16:39.768Z,101406.25
2023-05-04T20:19:06.912Z,101408.03
2023-05-04T20:21:34.050Z,101402.78
2023-05-04T20:24:01.618Z,101396.69
2023-05-04T20:26:29.279Z,101398.47
2023-05-04T20:28:56.523Z,101394.97
2023-05-04T20:31:23.695Z,101387.13
2023-05-04T20:33:50.763Z,101393.22
2023-05-04T20:36:17.834Z,101388.03
2023-05-04T20:38:45.026Z,101378.44
2023-05-04T20:41:12.389Z,101390.63
2023-05-04T20:43:39.796Z,101384.56
2023-05-04T20:46:07.020Z,101381.09
2023-05-04T20:48:35.281Z,101371.53
2023-05-04T20:51:14.080Z,101376.72
2023-05-04T20:53:42.069Z,101373.25
2023-05-04T20:56:09.218Z,101371.53
2023-05-04T20:58:36.239Z,101372.41
2023-05-04T21:01:04.993Z,101368.06
2023-05-04T21:03:32.526Z,101364.56
2023-05-04T21:06:01.597Z,101352.38
2023-05-04T21:08:28.735Z,101348.88
2023-05-04T21:10:55.967Z,101357.63
2023-05-04T21:13:23.648Z,101348.91
2023-05-04T21:15:50.795Z,101348.88
2023-05-04T21:18:19.542Z,101343.66
2023-05-04T21:20:46.719Z,101343.66
2023-05-04T21:23:13.867Z,101346.28
2023-05-04T21:25:41.009Z,101333.22
2023-05-04T21:28:08.170Z,101328.88
2023-05-04T21:30:35.442Z,101339.34
2023-05-04T21:33:02.603Z,101340.22
2023-05-04T21:35:30.879Z,101328.88
2023-05-04T21:37:58.958Z,101327.16
2023-05-04T21:40:27.429Z,101328.03
2023-05-04T21:42:54.576Z,101323.69
2023-05-04T21:45:21.740Z,101321.94
2023-05-04T21:47:49.141Z,101321.06
2023-05-04T21:50:17.070Z,101316.69
2023-05-04T21:52:44.075Z,101319.28
2023-05-04T21:55:11.137Z,101309.69
2023-05-04T21:57:38.204Z,101321.03
2023-05-04T22:00:11.939Z,101321.00
2023-05-04T22:02:39.062Z,101325.41
2023-05-04T22:05:06.332Z,101327.09
2023-05-04T22:07:35.340Z,101307.97
2023-05-04T22:10:04.432Z,101318.41
2023-05-04T22:12:31.514Z,101310.56
2023-05-04T22:14:58.588Z,101309.69
2023-05-04T22:17:25.668Z,101312.28
2023-05-04T22:19:56.199Z,101309.69
2023-05-04T22:22:23.466Z,101308.81
2023-05-04T22:24:50.549Z,101310.56
2023-05-04T22:27:18.349Z,101302.69
2023-05-04T22:29:45.494Z,101303.56
2023-05-04T22:32:12.704Z,101304.44
2023-05-04T22:34:39.927Z,101300.06
2023-05-04T22:37:07.338Z,101297.47
2023-05-04T22:39:34.621Z,101312.25
2023-05-04T22:42:02.036Z,101313.97
2023-05-04T22:44:29.329Z,101303.50
2023-05-04T22:46:56.421Z,101308.72
2023-05-04T22:49:23.551Z,101305.22
2023-05-04T22:51:50.931Z,101300.00
2023-05-04T22:54:17.917Z,101294.75
2023-05-04T22:56:44.892Z,101300.88
2023-05-04T22:59:12.381Z,101300.03
2023-05-04T23:01:43.047Z,101304.34
2023-05-04T23:04:11.452Z,101300.00
2023-05-04T23:06:39.068Z,101294.78
2023-05-04T23:09:06.175Z,101306.94
2023-05-04T23:11:33.430Z,101305.22
2023-05-04T23:14:01.007Z,101307.81
2023-05-04T23:16:28.259Z,101311.28
2023-05-04T23:18:55.407Z,101310.41
2023-05-04T23:21:23.267Z,101310.41
2023-05-04T23:23:52.014Z,101315.63
2023-05-04T23:26:19.359Z,101304.28
2023-05-04T23:28:46.423Z,101302.59
2023-05-04T23:31:13.483Z,101316.53
2023-05-04T23:33:40.687Z,101320.88
2023-05-04T23:36:08.285Z,101333.91
2023-05-04T23:38:35.371Z,101328.69
2023-05-04T23:41:05.840Z,101333.94
2023-05-04T23:43:32.955Z,101336.50
2023-05-04T23:46:01.940Z,101327.81
2023-05-04T23:48:29.904Z,101329.47
2023-05-04T23:51:04.429Z,101320.78
2023-05-04T23:53:31.856Z,101323.41
2023-05-04T23:56:02.865Z,101325.13
2023-05-04T23:58:32.030Z,101334.69
